createdAt,value
2023-03-18T00:00:12.429Z,5.23
2023-03-18T00:00:36.437Z,4.50
2023-03-18T00:00:56.823Z,4.34
2023-03-18T00:01:29.986Z,4.02
2023-03-18T00:02:00.596Z,4.02
2023-03-18T00:02:32.327Z,4.02
2023-03-18T00:03:04.311Z,4.02
2023-03-18T00:03:36.617Z,4.02
2023-03-18T00:04:08.308Z,4.02
2023-03-18T00:04:36.741Z,4.02
2023-03-18T00:04:56.442Z,3.78
2023-03-18T00:05:28.610Z,3.54
2023-03-18T00:06:00.871Z,3.54
2023-03-18T00:06:32.172Z,3.54
2023-03-18T00:07:04.088Z,3.54
2023-03-18T00:07:36.666Z,3.54
2023-03-18T00:08:08.167Z,3.54
2023-03-18T00:08:36.431Z,3.54
2023-03-18T00:08:56.543Z,3.54
2023-03-18T00:09:28.100Z,3.54
2023-03-18T00:10:01.168Z,3.54
2023-03-18T00:10:32.583Z,3.54
2023-03-18T00:11:04.370Z,3.54
2023-03-18T00:11:36.217Z,3.54
2023-03-18T00:12:08.216Z,3.54
2023-03-18T00:12:36.477Z,3.54
2023-03-18T00:12:56.402Z,3.54
2023-03-18T00:13:28.013Z,3.78
2023-03-18T00:14:00.299Z,4.34
2023-03-18T00:14:32.140Z,4.66
2023-03-18T00:15:06.094Z,4.82
2023-03-18T00:15:36.865Z,4.98
2023-03-18T00:16:08.200Z,4.98
2023-03-18T00:16:36.419Z,5.23
2023-03-18T00:16:56.549Z,5.47
2023-03-18T00:17:28.036Z,5.47
2023-03-18T00:18:00.397Z,5.47
2023-03-18T00:18:32.227Z,5.47
2023-03-18T00:19:04.312Z,5.63
2023-03-18T00:19:36.329Z,5.95
2023-03-18T00:20:08.854Z,6.11
2023-03-18T00:20:36.345Z,6.11
2023-03-18T00:20:57.877Z,6.27
2023-03-18T00:21:28.021Z,6.84
2023-03-18T00:22:00.464Z,7.24
2023-03-18T00:22:32.104Z,7.08
2023-03-18T00:23:04.009Z,7.08
2023-03-18T00:23:36.343Z,7.08
2023-03-18T00:24:08.067Z,7.24
2023-03-18T00:24:36.237Z,7.40
2023-03-18T00:24:56.463Z,7.72
2023-03-18T00:25:28.673Z,7.72
2023-03-18T00:26:00.177Z,7.88
2023-03-18T00:26:32.196Z,7.88
2023-03-18T00:27:04.537Z,7.88
2023-03-18T00:27:37.863Z,7.88
2023-03-18T00:28:09.281Z,8.29
2023-03-18T00:28:36.950Z,8.85
2023-03-18T00:28:56.445Z,8.85
2023-03-18T00:29:28.045Z,9.01
2023-03-18T00:30:01.489Z,8.85
2023-03-18T00:30:32.400Z,8.45
2023-03-18T00:31:04.107Z,8.45
2023-03-18T00:31:36.213Z,9.17
2023-03-18T00:32:08.753Z,9.17
2023-03-18T00:32:36.318Z,9.17
2023-03-18T00:32:56.508Z,9.17
2023-03-18T00:33:28.164Z,9.33
2023-03-18T00:34:00.634Z,9.33
2023-03-18T00:34:32.136Z,9.33
2023-03-18T00:35:05.624Z,9.49
2023-03-18T00:35:36.315Z,9.65
2023-03-18T00:36:08.860Z,9.49
2023-03-18T00:36:36.526Z,9.33
2023-03-18T00:36:56.522Z,9.33
2023-03-18T00:37:28.469Z,9.33
2023-03-18T00:38:00.349Z,9.33
2023-03-18T00:38:32.205Z,9.01
2023-03-18T00:39:04.253Z,9.33
2023-03-18T00:39:36.287Z,9.01
2023-03-18T00:40:09.028Z,9.01
2023-03-18T00:40:36.150Z,9.01
2023-03-18T00:40:57.450Z,9.01
2023-03-18T00:41:28.405Z,9.01
2023-03-18T00:42:00.315Z,9.01
2023-03-18T00:42:32.145Z,9.01
2023-03-18T00:43:04.157Z,9.01
2023-03-18T00:43:36.280Z,9.01
2023-03-18T00:44:08.313Z,9.01
2023-03-18T00:44:36.245Z,9.01
2023-03-18T00:44:56.347Z,8.69
2023-03-18T00:45:29.111Z,8.45
2023-03-18T00:46:00.308Z,8.45
2023-03-18T00:46:32.114Z,8.45
2023-03-18T00:47:04.029Z,8.45
2023-03-18T00:47:37.175Z,8.04
2023-03-18T00:48:09.365Z,8.45
2023-03-18T00:48:36.558Z,8.45
2023-03-18T00:48:56.424Z,8.04
2023-03-18T00:49:28.193Z,8.04
2023-03-18T00:50:01.077Z,8.04
2023-03-18T00:50:33.037Z,8.04
2023-03-18T00:51:04.031Z,7.88
2023-03-18T00:51:36.065Z,7.88
2023-03-18T00:52:08.122Z,7.72
2023-03-18T00:52:36.277Z,7.56
2023-03-18T00:52:56.597Z,7.40
2023-03-18T00:53:28.053Z,7.24
2023-03-18T00:54:00.383Z,7.24
2023-03-18T00:54:32.125Z,7.24
2023-03-18T00:55:05.798Z,7.24
2023-03-18T00:55:36.204Z,7.24
2023-03-18T00:56:08.143Z,7.24
2023-03-18T00:56:36.482Z,7.24
2023-03-18T00:56:56.652Z,7.24
2023-03-18T00:57:28.131Z,7.24
2023-03-18T00:58:00.476Z,7.24
2023-03-18T00:58:32.067Z,7.24
2023-03-18T00:59:04.055Z,7.56
2023-03-18T00:59:36.693Z,7.56
2023-03-18T01:00:09.791Z,7.88
2023-03-18T01:00:36.900Z,8.29
2023-03-18T01:00:57.844Z,8.69
2023-03-18T01:01:28.270Z,9.01
2023-03-18T01:02:00.351Z,9.49
2023-03-18T01:02:32.141Z,9.65
2023-03-18T01:03:04.150Z,10.06
2023-03-18T01:03:36.867Z,10.46
2023-03-18T01:04:08.079Z,10.46
2023-03-18T01:04:36.423Z,10.46
2023-03-18T01:04:56.398Z,10.46
2023-03-18T01:05:28.581Z,10.46
2023-03-18T01:06:00.455Z,10.62
2023-03-18T01:06:32.212Z,10.78
2023-03-18T01:07:04.103Z,10.78
2023-03-18T01:07:36.808Z,10.78
2023-03-18T01:08:08.300Z,10.94
2023-03-18T01:08:36.317Z,11.10
2023-03-18T01:08:56.372Z,11.34
2023-03-18T01:09:28.025Z,11.58
2023-03-18T01:10:00.890Z,11.58
2023-03-18T01:10:32.453Z,11.74
2023-03-18T01:11:04.163Z,11.74
2023-03-18T01:11:36.776Z,11.74
2023-03-18T01:12:08.097Z,11.58
2023-03-18T01:12:38.331Z,11.58
2023-03-18T01:12:57.104Z,11.34
2023-03-18T01:13:28.615Z,11.34
2023-03-18T01:14:00.300Z,11.34
2023-03-18T01:14:32.207Z,11.10
2023-03-18T01:15:06.168Z,11.10
2023-03-18T01:15:36.394Z,10.22
2023-03-18T01:16:08.266Z,9.49
2023-03-18T01:16:36.384Z,9.49
2023-03-18T01:16:56.651Z,9.49
2023-03-18T01:17:28.184Z,9.49
2023-03-18T01:18:00.299Z,9.33
2023-03-18T01:18:32.305Z,9.33
2023-03-18T01:19:04.490Z,9.33
2023-03-18T01:19:36.941Z,9.17
2023-03-18T01:20:08.980Z,9.17
2023-03-18T01:20:36.940Z,8.85
2023-03-18T01:20:57.615Z,8.85
2023-03-18T01:21:28.066Z,9.17
2023-03-18T01:22:00.319Z,9.33
2023-03-18T01:22:32.473Z,9.33
2023-03-18T01:23:04.118Z,9.33
2023-03-18T01:23:37.006Z,9.33
2023-03-18T01:24:08.282Z,9.33
2023-03-18T01:24:36.710Z,9.33
2023-03-18T01:24:56.558Z,9.33
2023-03-18T01:25:29.024Z,9.01
2023-03-18T01:26:00.287Z,8.45
2023-03-18T01:26:32.278Z,8.45
2023-03-18T01:27:04.025Z,8.20
2023-03-18T01:27:36.161Z,8.04
2023-03-18T01:28:08.293Z,7.88
2023-03-18T01:28:36.389Z,7.88
2023-03-18T01:28:56.475Z,7.88
2023-03-18T01:29:28.087Z,7.88
2023-03-18T01:30:01.560Z,7.88
2023-03-18T01:30:32.675Z,7.88
2023-03-18T01:31:04.067Z,7.88
2023-03-18T01:31:36.363Z,7.88
2023-03-18T01:32:08.358Z,7.88
2023-03-18T01:32:36.373Z,7.88
2023-03-18T01:32:56.609Z,7.88
2023-03-18T01:33:28.077Z,7.88
2023-03-18T01:34:00.452Z,7.88
2023-03-18T01:34:32.352Z,8.29
2023-03-18T01:35:05.870Z,8.69
2023-03-18T01:35:37.640Z,8.69
2023-03-18T01:36:08.336Z,8.85
2023-03-18T01:36:37.376Z,9.01
2023-03-18T01:36:57.067Z,9.01
2023-03-18T01:37:28.406Z,9.17
2023-03-18T01:38:32.256Z,10.78
2023-03-18T01:39:04.089Z,10.94
2023-03-18T01:39:37.136Z,10.94
2023-03-18T01:40:08.809Z,11.10
2023-03-18T01:40:37.117Z,11.10
2023-03-18T01:40:56.730Z,11.10
2023-03-18T01:41:28.041Z,11.34
2023-03-18T01:42:00.357Z,11.74
2023-03-18T01:42:32.286Z,11.90
2023-03-18T01:43:04.168Z,12.07
2023-03-18T01:43:36.544Z,12.39
2023-03-18T01:44:08.322Z,12.79
2023-03-18T01:44:36.332Z,12.79
2023-03-18T01:44:56.609Z,13.03
2023-03-18T01:45:29.833Z,13.03
2023-03-18T01:46:01.068Z,13.03
2023-03-18T01:46:32.325Z,13.03
2023-03-18T01:47:04.225Z,12.79
2023-03-18T01:47:36.745Z,12.55
2023-03-18T01:48:08.424Z,12.55
2023-03-18T01:48:37.452Z,12.79
2023-03-18T01:48:57.268Z,12.55
2023-03-18T01:49:28.185Z,12.79
2023-03-18T01:50:01.612Z,13.03
2023-03-18T01:50:32.472Z,13.03
2023-03-18T01:51:04.181Z,12.79
2023-03-18T01:51:37.160Z,13.03
2023-03-18T01:52:08.314Z,12.79
2023-03-18T01:52:36.971Z,12.39
2023-03-18T01:52:56.807Z,12.23
2023-03-18T01:53:27.977Z,12.07
2023-03-18T01:54:00.482Z,12.07
2023-03-18T01:54:32.122Z,12.07
2023-03-18T01:55:05.409Z,12.07
2023-03-18T01:55:37.094Z,12.23
2023-03-18T01:56:08.519Z,12.23
2023-03-18T01:56:36.404Z,12.23
2023-03-18T01:56:56.648Z,12.23
2023-03-18T01:57:28.093Z,12.23
2023-03-18T01:58:01.291Z,12.23
2023-03-18T01:58:32.620Z,12.23
2023-03-18T01:59:04.500Z,12.23
2023-03-18T01:59:36.172Z,12.23
2023-03-18T02:00:09.501Z,12.23
2023-03-18T02:00:36.347Z,12.23
2023-03-18T02:00:57.454Z,12.23
2023-03-18T02:01:28.179Z,12.23
2023-03-18T02:02:00.361Z,12.39
2023-03-18T02:02:32.181Z,12.55
2023-03-18T02:03:04.070Z,12.55
2023-03-18T02:03:36.394Z,12.55
2023-03-18T02:04:08.127Z,12.79
2023-03-18T02:04:36.184Z,13.03
2023-03-18T02:04:56.660Z,13.03
2023-03-18T02:05:28.723Z,12.79
2023-03-18T02:06:00.295Z,13.03
2023-03-18T02:06:32.254Z,13.19
2023-03-18T02:07:04.213Z,13.19
2023-03-18T02:07:36.118Z,13.19
2023-03-18T02:08:08.800Z,13.03
2023-03-18T02:08:36.439Z,13.03
2023-03-18T02:08:56.406Z,13.03
2023-03-18T02:09:28.739Z,13.03
2023-03-18T02:10:01.998Z,13.03
2023-03-18T02:10:32.973Z,13.03
2023-03-18T02:11:04.296Z,13.35
2023-03-18T02:11:36.312Z,13.35
2023-03-18T02:12:08.155Z,14.00
2023-03-18T02:12:37.033Z,14.00
2023-03-18T02:12:56.925Z,13.35
2023-03-18T02:13:28.141Z,13.35
2023-03-18T02:14:00.731Z,13.35
2023-03-18T02:14:32.159Z,12.79
2023-03-18T02:15:06.251Z,12.39
2023-03-18T02:15:36.281Z,12.07
2023-03-18T02:16:08.150Z,11.90
2023-03-18T02:16:36.242Z,11.74
2023-03-18T02:16:56.451Z,11.34
2023-03-18T02:17:27.996Z,11.10
2023-03-18T02:18:00.208Z,11.10
2023-03-18T02:18:32.116Z,10.78
2023-03-18T02:19:04.251Z,10.78
2023-03-18T02:19:36.698Z,10.78
2023-03-18T02:20:08.965Z,10.78
2023-03-18T02:20:36.246Z,11.10
2023-03-18T02:20:57.631Z,10.78
2023-03-18T02:21:28.471Z,10.78
2023-03-18T02:22:00.408Z,10.78
2023-03-18T02:22:32.282Z,10.78
2023-03-18T02:23:04.836Z,10.78
2023-03-18T02:23:36.420Z,10.78
2023-03-18T02:24:08.798Z,10.78
2023-03-18T02:24:36.357Z,11.10
2023-03-18T02:24:56.660Z,11.34
2023-03-18T02:25:28.766Z,11.74
2023-03-18T02:26:00.268Z,11.74
2023-03-18T02:26:32.118Z,11.74
2023-03-18T02:27:04.148Z,12.07
2023-03-18T02:27:36.242Z,12.23
2023-03-18T02:28:08.396Z,12.23
2023-03-18T02:28:36.457Z,12.23
2023-03-18T02:28:56.581Z,12.23
2023-03-18T02:29:28.037Z,12.23
2023-03-18T02:30:01.530Z,12.07
2023-03-18T02:30:32.994Z,11.90
2023-03-18T02:31:04.329Z,11.90
2023-03-18T02:31:36.616Z,11.90
2023-03-18T02:32:08.736Z,11.74
2023-03-18T02:32:36.754Z,11.74
2023-03-18T02:32:56.634Z,11.34
2023-03-18T02:33:28.363Z,10.94
2023-03-18T02:34:00.386Z,10.78
2023-03-18T02:34:32.173Z,10.78
2023-03-18T02:35:05.586Z,10.78
2023-03-18T02:35:36.152Z,10.62
2023-03-18T02:36:08.227Z,10.62
2023-03-18T02:36:36.830Z,10.46
2023-03-18T02:36:56.456Z,10.46
2023-03-18T02:37:27.952Z,10.46
2023-03-18T02:38:00.649Z,10.46
2023-03-18T02:38:32.264Z,10.78
2023-03-18T02:39:04.264Z,10.78
2023-03-18T02:39:36.111Z,10.78
2023-03-18T02:40:09.051Z,10.78
2023-03-18T02:40:36.975Z,10.78
2023-03-18T02:40:57.016Z,10.94
2023-03-18T02:41:27.947Z,10.94
2023-03-18T02:42:00.576Z,10.94
2023-03-18T02:42:32.186Z,10.78
2023-03-18T02:43:04.121Z,10.78
2023-03-18T02:43:36.836Z,10.78
2023-03-18T02:44:08.365Z,10.78
2023-03-18T02:44:36.338Z,10.78
2023-03-18T02:44:56.373Z,10.78
2023-03-18T02:45:29.158Z,10.94
2023-03-18T02:46:00.656Z,10.78
2023-03-18T02:46:32.156Z,10.78
2023-03-18T02:47:04.190Z,10.62
2023-03-18T02:47:36.192Z,10.46
2023-03-18T02:48:08.434Z,10.46
2023-03-18T02:48:36.375Z,10.46
2023-03-18T02:48:56.559Z,10.46
2023-03-18T02:49:28.186Z,10.46
2023-03-18T02:50:02.131Z,10.30
2023-03-18T02:50:32.563Z,10.30
2023-03-18T02:51:04.102Z,10.30
2023-03-18T02:51:36.935Z,10.30
2023-03-18T02:52:08.359Z,10.46
2023-03-18T02:52:36.274Z,10.46
2023-03-18T02:52:56.396Z,10.46
2023-03-18T02:53:27.987Z,10.46
2023-03-18T02:54:00.402Z,10.46
2023-03-18T02:54:32.400Z,10.46
2023-03-18T02:55:05.595Z,10.46
2023-03-18T02:55:36.097Z,10.30
2023-03-18T02:56:08.354Z,10.30
2023-03-18T02:56:36.292Z,9.89
2023-03-18T02:56:56.333Z,9.89
2023-03-18T02:57:28.024Z,9.89
2023-03-18T02:58:00.430Z,9.65
2023-03-18T02:58:32.262Z,9.65
2023-03-18T02:59:04.140Z,9.65
2023-03-18T02:59:36.162Z,9.89
2023-03-18T03:00:10.936Z,10.13
2023-03-18T03:00:36.448Z,10.13
2023-03-18T03:00:57.108Z,9.89
2023-03-18T03:01:30.320Z,9.89
2023-03-18T03:02:00.307Z,9.89
2023-03-18T03:02:32.393Z,9.65
2023-03-18T03:03:04.290Z,9.89
2023-03-18T03:03:36.424Z,9.89
2023-03-18T03:04:08.254Z,9.89
2023-03-18T03:04:37.168Z,10.13
2023-03-18T03:04:56.771Z,10.13
2023-03-18T03:05:29.405Z,10.13
2023-03-18T03:06:00.510Z,10.13
2023-03-18T03:06:32.182Z,10.30
2023-03-18T03:07:04.063Z,10.30
2023-03-18T03:07:38.312Z,10.46
2023-03-18T03:08:08.871Z,10.46
2023-03-18T03:08:36.452Z,10.78
2023-03-18T03:08:56.558Z,11.10
2023-03-18T03:09:28.126Z,11.10
2023-03-18T03:10:01.974Z,10.78
2023-03-18T03:10:33.735Z,10.46
2023-03-18T03:11:04.159Z,10.78
2023-03-18T03:11:37.410Z,10.46
2023-03-18T03:12:08.191Z,10.46
2023-03-18T03:12:36.495Z,10.46
2023-03-18T03:12:56.568Z,10.46
2023-03-18T03:13:28.031Z,10.46
2023-03-18T03:14:00.385Z,10.30
2023-03-18T03:14:32.256Z,9.89
2023-03-18T03:15:06.090Z,9.65
2023-03-18T03:15:37.034Z,9.89
2023-03-18T03:16:08.261Z,9.89
2023-03-18T03:16:36.406Z,9.65
2023-03-18T03:16:56.535Z,9.65
2023-03-18T03:17:27.969Z,9.65
2023-03-18T03:18:00.238Z,9.65
2023-03-18T03:18:32.196Z,9.65
2023-03-18T03:19:04.066Z,9.65
2023-03-18T03:19:36.199Z,9.49
2023-03-18T03:20:11.245Z,9.17
2023-03-18T03:20:36.334Z,9.01
2023-03-18T03:20:57.090Z,8.61
2023-03-18T03:21:28.177Z,8.45
2023-03-18T03:22:00.419Z,8.45
2023-03-18T03:22:32.209Z,8.04
2023-03-18T03:23:04.102Z,8.04
2023-03-18T03:23:36.503Z,7.88
2023-03-18T03:24:08.255Z,7.88
2023-03-18T03:24:36.896Z,7.88
2023-03-18T03:24:56.407Z,7.88
2023-03-18T03:25:28.883Z,7.56
2023-03-18T03:26:00.331Z,7.24
2023-03-18T03:26:32.299Z,7.24
2023-03-18T03:27:04.157Z,7.24
2023-03-18T03:27:36.234Z,7.24
2023-03-18T03:28:08.232Z,7.24
2023-03-18T03:28:36.277Z,7.24
2023-03-18T03:28:57.481Z,7.24
2023-03-18T03:29:28.544Z,7.24
2023-03-18T03:30:01.660Z,7.24
2023-03-18T03:30:32.600Z,7.24
2023-03-18T03:31:04.163Z,7.24
2023-03-18T03:31:36.902Z,7.24
2023-03-18T03:32:08.245Z,7.24
2023-03-18T03:32:36.653Z,7.24
2023-03-18T03:32:56.613Z,7.24
2023-03-18T03:33:28.110Z,7.24
2023-03-18T03:34:00.642Z,7.24
2023-03-18T03:34:32.296Z,7.24
2023-03-18T03:35:05.596Z,7.24
2023-03-18T03:35:36.997Z,7.40
2023-03-18T03:36:08.230Z,7.72
2023-03-18T03:36:36.308Z,7.88
2023-03-18T03:36:56.944Z,7.88
2023-03-18T03:37:28.587Z,7.88
2023-03-18T03:38:00.596Z,7.88
2023-03-18T03:38:32.672Z,7.88
2023-03-18T03:39:05.101Z,7.88
2023-03-18T03:39:36.321Z,7.88
2023-03-18T03:40:09.033Z,7.88
2023-03-18T03:40:36.231Z,7.88
2023-03-18T03:40:56.928Z,7.88
2023-03-18T03:41:28.106Z,7.88
2023-03-18T03:42:00.478Z,8.29
2023-03-18T03:42:32.658Z,8.29
2023-03-18T03:43:04.127Z,8.29
2023-03-18T03:43:36.198Z,8.29
2023-03-18T03:44:08.288Z,8.29
2023-03-18T03:44:36.576Z,7.88
2023-03-18T03:44:56.486Z,8.29
2023-03-18T03:45:29.360Z,7.88
2023-03-18T03:46:00.402Z,7.88
2023-03-18T03:46:33.391Z,7.88
2023-03-18T03:47:04.072Z,7.88
2023-03-18T03:47:36.961Z,7.88
2023-03-18T03:48:08.437Z,7.88
2023-03-18T03:48:36.635Z,7.88
2023-03-18T03:48:56.552Z,7.88
2023-03-18T03:49:28.064Z,7.88
2023-03-18T03:50:01.025Z,7.88
2023-03-18T03:50:33.701Z,7.88
2023-03-18T03:51:04.287Z,7.88
2023-03-18T03:51:36.615Z,7.88
2023-03-18T03:52:08.318Z,7.88
2023-03-18T03:52:36.298Z,7.88
2023-03-18T03:52:56.516Z,7.88
2023-03-18T03:53:27.952Z,7.88
2023-03-18T03:54:00.380Z,7.88
2023-03-18T03:54:32.096Z,7.88
2023-03-18T03:55:05.404Z,7.88
2023-03-18T03:55:36.079Z,7.88
2023-03-18T03:56:08.388Z,7.88
2023-03-18T03:56:37.037Z,7.88
2023-03-18T03:56:56.472Z,7.88
2023-03-18T03:57:28.354Z,7.88
2023-03-18T03:58:00.338Z,7.88
2023-03-18T03:58:32.226Z,7.88
2023-03-18T03:59:04.361Z,7.88
2023-03-18T03:59:37.165Z,8.45
2023-03-18T04:00:09.672Z,8.85
2023-03-18T04:00:36.373Z,8.85
2023-03-18T04:00:58.082Z,8.69
2023-03-18T04:01:28.204Z,8.69
2023-03-18T04:02:00.174Z,8.69
2023-03-18T04:02:32.418Z,8.69
2023-03-18T04:03:04.176Z,8.69
2023-03-18T04:03:36.252Z,8.69
2023-03-18T04:04:08.513Z,8.69
2023-03-18T04:04:36.769Z,8.69
2023-03-18T04:04:56.487Z,8.69
2023-03-18T04:05:28.626Z,8.69
2023-03-18T04:06:00.197Z,8.29
2023-03-18T04:06:32.200Z,8.29
2023-03-18T04:07:04.145Z,7.88
2023-03-18T04:07:36.164Z,7.72
2023-03-18T04:08:08.449Z,7.40
2023-03-18T04:08:36.794Z,7.24
2023-03-18T04:08:56.350Z,7.24
2023-03-18T04:09:28.262Z,7.08
2023-03-18T04:10:00.819Z,6.92
2023-03-18T04:10:32.693Z,6.52
2023-03-18T04:11:04.088Z,5.95
2023-03-18T04:11:36.234Z,5.63
2023-03-18T04:12:08.138Z,5.47
2023-03-18T04:12:36.228Z,5.47
2023-03-18T04:12:56.692Z,5.47
2023-03-18T04:13:28.103Z,5.47
2023-03-18T04:14:00.231Z,5.47
2023-03-18T04:14:32.189Z,5.23
2023-03-18T04:15:06.213Z,4.98
2023-03-18T04:15:36.480Z,4.82
2023-03-18T04:16:08.567Z,4.82
2023-03-18T04:16:36.255Z,4.66
2023-03-18T04:16:56.465Z,4.66
2023-03-18T04:17:28.078Z,4.66
2023-03-18T04:18:00.287Z,4.50
2023-03-18T04:18:32.289Z,4.18
2023-03-18T04:19:04.062Z,4.02
2023-03-18T04:19:36.067Z,4.02
2023-03-18T04:20:08.800Z,4.02
2023-03-18T04:20:36.192Z,4.02
2023-03-18T04:20:56.856Z,4.02
2023-03-18T04:21:27.984Z,3.78
2023-03-18T04:22:00.265Z,3.54
2023-03-18T04:22:32.241Z,3.54
2023-03-18T04:23:04.123Z,3.78
2023-03-18T04:23:36.315Z,3.78
2023-03-18T04:24:08.276Z,3.78
2023-03-18T04:24:36.298Z,4.02
2023-03-18T04:24:56.515Z,4.02
2023-03-18T04:25:28.603Z,4.02
2023-03-18T04:26:00.770Z,4.02
2023-03-18T04:26:32.225Z,4.02
2023-03-18T04:27:04.241Z,4.02
2023-03-18T04:27:36.274Z,4.02
2023-03-18T04:28:08.527Z,4.02
2023-03-18T04:28:36.267Z,4.02
2023-03-18T04:28:56.607Z,4.02
2023-03-18T04:29:28.153Z,4.02
2023-03-18T04:30:00.250Z,4.02
2023-03-18T04:30:33.524Z,4.02
2023-03-18T04:31:04.005Z,4.02
2023-03-18T04:31:36.291Z,4.02
2023-03-18T04:32:08.931Z,4.02
2023-03-18T04:32:36.911Z,4.02
2023-03-18T04:32:57.014Z,4.02
2023-03-18T04:33:28.099Z,4.02
2023-03-18T04:34:00.200Z,4.02
2023-03-18T04:34:32.164Z,3.78
2023-03-18T04:35:05.595Z,3.54
2023-03-18T04:35:36.298Z,3.54
2023-03-18T04:36:08.349Z,3.54
2023-03-18T04:36:36.292Z,3.54
2023-03-18T04:36:56.365Z,3.54
2023-03-18T04:37:29.209Z,3.54
2023-03-18T04:38:00.734Z,3.54
2023-03-18T04:38:32.247Z,3.54
2023-03-18T04:39:04.421Z,3.54
2023-03-18T04:39:36.492Z,3.38
2023-03-18T04:40:08.882Z,3.38
2023-03-18T04:40:36.215Z,3.38
2023-03-18T04:40:56.859Z,3.38
2023-03-18T04:41:28.133Z,3.21
2023-03-18T04:42:00.922Z,3.38
2023-03-18T04:42:32.254Z,3.21
2023-03-18T04:43:04.244Z,3.21
2023-03-18T04:43:36.370Z,3.21
2023-03-18T04:44:08.270Z,3.21
2023-03-18T04:44:36.197Z,3.21
2023-03-18T04:44:56.901Z,3.21
2023-03-18T04:45:29.246Z,3.21
2023-03-18T04:46:00.276Z,3.21
2023-03-18T04:46:32.224Z,3.21
2023-03-18T04:47:04.108Z,3.21
2023-03-18T04:47:36.067Z,3.21
2023-03-18T04:48:08.353Z,3.38
2023-03-18T04:48:36.326Z,3.54
2023-03-18T04:48:56.425Z,3.54
2023-03-18T04:49:28.071Z,3.54
2023-03-18T04:50:01.464Z,3.54
2023-03-18T04:50:32.620Z,3.54
2023-03-18T04:51:05.033Z,3.54
2023-03-18T04:51:36.353Z,3.78
2023-03-18T04:52:08.336Z,3.54
2023-03-18T04:52:37.878Z,3.54
2023-03-18T04:52:56.374Z,3.78
2023-03-18T04:53:28.135Z,4.02
2023-03-18T04:54:01.865Z,4.02
2023-03-18T04:54:32.356Z,4.02
2023-03-18T04:55:05.843Z,4.02
2023-03-18T04:55:36.232Z,4.02
2023-03-18T04:56:08.080Z,4.02
2023-03-18T04:56:36.925Z,4.02
2023-03-18T04:56:56.462Z,4.02
2023-03-18T04:57:28.240Z,4.02
2023-03-18T04:58:00.165Z,4.02
2023-03-18T04:58:32.354Z,3.78
2023-03-18T04:59:04.079Z,3.78
2023-03-18T04:59:36.301Z,3.78
2023-03-18T05:00:11.461Z,3.54
2023-03-18T05:00:36.532Z,3.54
2023-03-18T05:00:57.217Z,3.54
2023-03-18T05:01:28.099Z,3.54
2023-03-18T05:02:00.375Z,3.54
2023-03-18T05:02:32.222Z,3.54
2023-03-18T05:03:04.052Z,3.54
2023-03-18T05:03:36.340Z,3.38
2023-03-18T05:04:08.598Z,3.21
2023-03-18T05:04:36.364Z,3.21
2023-03-18T05:04:56.540Z,3.05
2023-03-18T05:05:28.708Z,2.89
2023-03-18T05:06:00.262Z,2.89
2023-03-18T05:06:32.319Z,2.89
2023-03-18T05:07:04.056Z,2.89
2023-03-18T05:07:36.884Z,2.89
2023-03-18T05:08:08.210Z,2.89
2023-03-18T05:08:36.483Z,2.89
2023-03-18T05:08:56.482Z,2.89
2023-03-18T05:09:28.289Z,2.89
2023-03-18T05:10:01.671Z,2.89
2023-03-18T05:10:32.331Z,2.89
2023-03-18T05:11:04.032Z,2.89
2023-03-18T05:11:36.351Z,2.89
2023-03-18T05:12:08.335Z,2.89
2023-03-18T05:12:36.557Z,2.89
2023-03-18T05:12:56.670Z,2.89
2023-03-18T05:13:28.129Z,3.05
2023-03-18T05:14:00.465Z,2.89
2023-03-18T05:14:32.226Z,3.22
2023-03-18T05:15:06.476Z,3.22
2023-03-18T05:15:37.627Z,3.22
2023-03-18T05:16:09.129Z,3.05
2023-03-18T05:16:38.275Z,3.38
2023-03-18T05:16:56.354Z,3.38
2023-03-18T05:17:30.540Z,3.54
2023-03-18T05:18:00.600Z,3.78
2023-03-18T05:18:32.308Z,3.78
2023-03-18T05:19:04.291Z,3.78
2023-03-18T05:19:36.364Z,4.02
2023-03-18T05:20:08.879Z,4.02
2023-03-18T05:20:36.319Z,4.02
2023-03-18T05:20:58.286Z,4.02
2023-03-18T05:21:30.429Z,4.02
2023-03-18T05:22:00.507Z,4.34
2023-03-18T05:22:32.344Z,4.82
2023-03-18T05:23:04.120Z,5.39
2023-03-18T05:23:36.265Z,5.79
2023-03-18T05:24:08.277Z,5.95
2023-03-18T05:24:36.215Z,6.11
2023-03-18T05:24:56.830Z,6.11
2023-03-18T05:25:29.097Z,6.11
2023-03-18T05:26:00.514Z,6.11
2023-03-18T05:26:32.462Z,6.11
2023-03-18T05:27:04.164Z,6.11
2023-03-18T05:27:36.361Z,6.11
2023-03-18T05:28:11.197Z,6.11
2023-03-18T05:28:36.894Z,6.11
2023-03-18T05:28:56.705Z,6.11
2023-03-18T05:29:28.378Z,6.11
2023-03-18T05:30:01.696Z,6.11
2023-03-18T05:30:34.542Z,5.95
2023-03-18T05:31:04.487Z,5.79
2023-03-18T05:31:36.424Z,5.79
2023-03-18T05:32:08.373Z,5.79
2023-03-18T05:32:37.133Z,5.63
2023-03-18T05:32:56.817Z,5.47
2023-03-18T05:33:28.409Z,5.47
2023-03-18T05:34:00.487Z,5.47
2023-03-18T05:34:32.562Z,5.47
2023-03-18T05:35:05.883Z,5.47
2023-03-18T05:35:36.497Z,5.47
2023-03-18T05:36:08.391Z,5.47
2023-03-18T05:36:37.169Z,5.47
2023-03-18T05:36:56.542Z,5.06
2023-03-18T05:37:28.399Z,5.06
2023-03-18T05:38:00.428Z,5.06
2023-03-18T05:38:32.546Z,5.06
2023-03-18T05:39:04.291Z,4.66
2023-03-18T05:39:36.513Z,4.66
2023-03-18T05:40:09.209Z,4.66
2023-03-18T05:40:36.649Z,5.06
2023-03-18T05:40:57.373Z,5.47
2023-03-18T05:41:28.434Z,5.06
2023-03-18T05:42:00.874Z,5.06
2023-03-18T05:42:33.184Z,5.06
2023-03-18T05:43:05.049Z,5.06
2023-03-18T05:43:36.388Z,4.66
2023-03-18T05:44:08.442Z,4.50
2023-03-18T05:44:36.747Z,4.50
2023-03-18T05:44:56.628Z,4.50
2023-03-18T05:45:29.401Z,4.18
2023-03-18T05:46:00.719Z,4.50
2023-03-18T05:46:32.549Z,4.50
2023-03-18T05:47:04.382Z,4.50
2023-03-18T05:47:36.474Z,4.18
2023-03-18T05:48:08.441Z,4.18
2023-03-18T05:48:37.005Z,4.02
2023-03-18T05:48:56.752Z,4.18
2023-03-18T05:49:28.408Z,4.02
2023-03-18T05:50:01.250Z,3.78
2023-03-18T05:50:32.467Z,3.54
2023-03-18T05:51:04.240Z,3.54
2023-03-18T05:51:36.241Z,3.54
2023-03-18T05:52:10.278Z,3.54
2023-03-18T05:52:37.355Z,3.54
2023-03-18T05:52:56.555Z,3.54
2023-03-18T05:53:28.437Z,3.78
2023-03-18T05:54:00.438Z,4.02
2023-03-18T05:54:32.423Z,4.02
2023-03-18T05:55:05.672Z,4.02
2023-03-18T05:55:36.399Z,4.02
2023-03-18T05:56:08.537Z,4.02
2023-03-18T05:56:36.443Z,4.02
2023-03-18T05:56:56.507Z,4.18
2023-03-18T05:57:28.801Z,4.34
2023-03-18T05:58:00.737Z,4.34
2023-03-18T05:58:32.536Z,4.50
2023-03-18T05:59:04.412Z,4.34
2023-03-18T05:59:36.610Z,4.66
2023-03-18T06:00:09.886Z,4.98
2023-03-18T06:00:36.570Z,4.98
2023-03-18T06:00:57.962Z,4.98
2023-03-18T06:01:28.656Z,4.98
2023-03-18T06:02:00.547Z,4.98
2023-03-18T06:02:32.512Z,4.98
2023-03-18T06:03:04.357Z,4.98
2023-03-18T06:03:36.634Z,4.98
2023-03-18T06:04:08.456Z,4.98
2023-03-18T06:04:36.391Z,4.98
2023-03-18T06:04:56.637Z,4.98
2023-03-18T06:05:28.880Z,4.98
2023-03-18T06:06:00.526Z,4.98
2023-03-18T06:06:32.684Z,5.23
2023-03-18T06:07:04.745Z,4.98
2023-03-18T06:07:36.818Z,4.98
2023-03-18T06:08:08.498Z,4.98
2023-03-18T06:08:37.223Z,4.98
2023-03-18T06:08:56.766Z,4.98
2023-03-18T06:09:28.535Z,4.98
2023-03-18T06:10:01.631Z,4.98
2023-03-18T06:10:32.774Z,4.82
2023-03-18T06:11:04.492Z,4.98
2023-03-18T06:11:36.482Z,4.82
2023-03-18T06:12:08.666Z,4.66
2023-03-18T06:12:36.597Z,4.66
2023-03-18T06:12:57.200Z,4.66
2023-03-18T06:13:28.382Z,4.66
2023-03-18T06:14:00.536Z,4.34
2023-03-18T06:14:32.544Z,4.02
2023-03-18T06:15:06.382Z,4.02
2023-03-18T06:15:36.947Z,4.02
2023-03-18T06:16:08.444Z,4.02
2023-03-18T06:16:36.809Z,4.02
2023-03-18T06:16:57.211Z,4.34
2023-03-18T06:17:28.456Z,4.66
2023-03-18T06:18:00.587Z,4.66
2023-03-18T06:18:32.525Z,4.66
2023-03-18T06:19:04.325Z,4.66
2023-03-18T06:19:37.193Z,4.66
2023-03-18T06:20:09.408Z,4.66
2023-03-18T06:20:36.817Z,4.66
2023-03-18T06:20:58.021Z,4.66
2023-03-18T06:21:28.522Z,4.66
2023-03-18T06:22:00.556Z,5.06
2023-03-18T06:22:32.424Z,5.47
2023-03-18T06:23:04.458Z,5.47
2023-03-18T06:23:37.700Z,5.63
2023-03-18T06:24:08.648Z,5.79
2023-03-18T06:24:38.735Z,5.79
2023-03-18T06:24:56.514Z,5.79
2023-03-18T06:25:29.301Z,5.79
2023-03-18T06:26:00.492Z,5.79
2023-03-18T06:26:32.849Z,5.95
2023-03-18T06:27:04.432Z,5.95
2023-03-18T06:27:36.805Z,6.27
2023-03-18T06:28:09.689Z,6.27
2023-03-18T06:28:37.801Z,6.43
2023-03-18T06:28:58.086Z,6.27
2023-03-18T06:29:28.564Z,6.43
2023-03-18T06:30:06.695Z,6.43
2023-03-18T06:30:32.990Z,6.43
2023-03-18T06:31:05.877Z,6.68
2023-03-18T06:31:37.308Z,6.68
2023-03-18T06:32:08.656Z,6.68
2023-03-18T06:32:37.537Z,6.68
2023-03-18T06:32:57.454Z,6.68
2023-03-18T06:33:30.376Z,6.43
2023-03-18T06:34:01.514Z,6.43
2023-03-18T06:34:32.574Z,6.43
2023-03-18T06:35:06.458Z,6.43
2023-03-18T06:35:37.118Z,6.43
2023-03-18T06:36:09.883Z,6.43